sensor_id;sensor_type;location;lat;lon;timestamp;temperature;humidity
10662;DHT22;5379;51.034;7.006;2023-09-18T04:31:12;25.10;99.90
10662;DHT22;5379;51.034;7.006;2023-09-18T04:33:39;25.00;99.90
10662;DHT22;5379;51.034;7.006;2023-09-18T04:36:06;25.00;99.90
10662;DHT22;5379;51.034;7.006;2023-09-18T04:38:33;24.90;99.90
10662;DHT22;5379;51.034;7.006;2023-09-18T04:41:01;24.80;99.90
10662;DHT22;5379;51.034;7.006;2023-09-18T04:43:28;24.60;99.90
10662;DHT22;5379;51.034;7.006;2023-09-18T04:45:55;24.80;99.90
10662;DHT22;5379;51.034;7.006;2023-09-18T04:48:23;24.80;99.90
10662;DHT22;5379;51.034;7.006;2023-09-18T04:50:50;24.80;99.90
10662;DHT22;5379;51.034;7.006;2023-09-18T04:53:17;24.60;99.90
10662;DHT22;5379;51.034;7.006;2023-09-18T04:55:45;24.70;99.90
10662;DHT22;5379;51.034;7.006;2023-09-18T04:58:14;24.80;99.90
10662;DHT22;5379;51.034;7.006;2023-09-18T05:00:42;24.40;99.90
10662;DHT22;5379;51.034;7.006;2023-09-18T05:03:09;24.50;99.90
10662;DHT22;5379;51.034;7.006;2023-09-18T05:05:37;24.30;99.90
10662;DHT22;5379;51.034;7.006;2023-09-18T05:08:06;24.60;99.90
10662;DHT22;5379;51.034;7.006;2023-09-18T05:10:34;24.50;99.90
10662;DHT22;5379;51.034;7.006;2023-09-18T05:13:00;24.70;99.90
10662;DHT22;5379;51.034;7.006;2023-09-18T05:15:28;24.60;99.90
10662;DHT22;5379;51.034;7.006;2023-09-18T05:17:56;24.40;99.90
10662;DHT22;5379;51.034;7.006;2023-09-18T05:20:24;24.70;99.90
10662;DHT22;5379;51.034;7.006;2023-09-18T05:22:53;24.50;99.90
10662;DHT22;5379;51.034;7.006;2023-09-18T05:25:20;24.70;99.90
10662;DHT22;5379;51.034;7.006;2023-09-18T05:27:48;24.80;99.90
10662;DHT22;5379;51.034;7.006;2023-09-18T05:30:23;24.60;99.90
10662;DHT22;5379;51.034;7.006;2023-09-18T05:32:51;24.70;99.90
10662;DHT22;5379;51.034;7.006;2023-09-18T05:35:18;25.00;99.90
10662;DHT22;5379;51.034;7.006;2023-09-18T05:37:45;25.10;99.90
10662;DHT22;5379;51.034;7.006;2023-09-18T05:40:13;24.90;99.90
10662;DHT22;5379;51.034;7.006;2023-09-18T05:42:43;25.00;99.90
10662;DHT22;5379;51.034;7.006;2023-09-18T05:45:11;24.90;99.90
10662;DHT22;5379;51.034;7.006;2023-09-18T05:47:38;24.80;99.90
10662;DHT22;5379;51.034;7.006;2023-09-18T05:50:06;24.70;99.90
10662;DHT22;5379;51.034;7.006;2023-09-18T05:52:34;24.70;99.90
10662;DHT22;5379;51.034;7.006;2023-09-18T05:55:02;24.70;99.90
10662;DHT22;5379;51.034;7.006;2023-09-18T05:57:30;24.60;99.90
10662;DHT22;5379;51.034;7.006;2023-09-18T05:59:57;24.80;99.90
10662;DHT22;5379;51.034;7.006;2023-09-18T06:02:24;24.70;99.90
10662;DHT22;5379;51.034;7.006;2023-09-18T06:04:54;24.60;99.90
10662;DHT22;5379;51.034;7.006;2023-09-18T06:07:23;24.60;99.90
10662;DHT22;5379;51.034;7.006;2023-09-18T06:09:50;24.70;99.90
10662;DHT22;5379;51.034;7.006;2023-09-18T06:12:17;24.90;99.90
10662;DHT22;5379;51.034;7.006;2023-09-18T06:14:45;25.10;99.90
10662;DHT22;5379;51.034;7.006;2023-09-18T06:17:13;25.00;99.90
10662;DHT22;5379;51.034;7.006;2023-09-18T06:19:41;24.80;99.90
10662;DHT22;5379;51.034;7.006;2023-09-18T06:22:07;24.90;99.90
10662;DHT22;5379;51.034;7.006;2023-09-18T06:24:35;24.80;99.90
10662;DHT22;5379;51.034;7.006;2023-09-18T06:27:02;24.90;99.90
10662;DHT22;5379;51.034;7.006;2023-09-18T06:29:29;24.70;99.90
10662;DHT22;5379;51.034;7.006;2023-09-18T06:31:57;24.80;99.90
10662;DHT22;5379;51.034;7.006;2023-09-18T06:34:24;24.80;99.90
10662;DHT22;5379;51.034;7.006;2023-09-18T06:36:51;25.00;99.90
10662;DHT22;5379;51.034;7.006;2023-09-18T06:39:18;25.10;99.90
10662;DHT22;5379;51.034;7.006;2023-09-18T06:41:45;25.20;99.90
10662;DHT22;5379;51.034;7.006;2023-09-18T06:44:12;25.00;99.90
10662;DHT22;5379;51.034;7.006;2023-09-18T06:46:39;25.20;99.90
10662;DHT22;5379;51.034;7.006;2023-09-18T06:49:07;25.40;99.90
10662;DHT22;5379;51.034;7.006;2023-09-18T06:51:35;25.60;99.90
10662;DHT22;5379;51.034;7.006;2023-09-18T06:54:02;25.20;99.90
10662;DHT22;5379;51.034;7.006;2023-09-18T06:56:29;25.40;99.90
10662;DHT22;5379;51.034;7.006;2023-09-18T06:58:55;25.60;99.90
10662;DHT22;5379;51.034;7.006;2023-09-18T07:01:22;25.70;99.90
10662;DHT22;5379;51.034;7.006;2023-09-18T07:03:51;25.50;99.90
10662;DHT22;5379;51.034;7.006;2023-09-18T07:06:19;25.70;99.90
10662;DHT22;5379;51.034;7.006;2023-09-18T07:08:46;25.70;99.90
10662;DHT22;5379;51.034;7.006;2023-09-18T07:11:15;25.80;99.90
10662;DHT22;5379;51.034;7.006;2023-09-18T07:13:42;26.30;99.90
10662;DHT22;5379;51.034;7.006;2023-09-18T07:16:09;26.40;99.90
10662;DHT22;5379;51.034;7.006;2023-09-18T07:18:37;26.80;99.90
10662;DHT22;5379;51.034;7.006;2023-09-18T07:21:04;26.90;99.90
10662;DHT22;5379;51.034;7.006;2023-09-18T07:23:32;26.90;99.90
10662;DHT22;5379;51.034;7.006;2023-09-18T07:26:02;26.70;99.90
10662;DHT22;5379;51.034;7.006;2023-09-18T07:28:29;26.60;99.90
10662;DHT22;5379;51.034;7.006;2023-09-18T07:30:56;26.60;99.90
10662;DHT22;5379;51.034;7.006;2023-09-18T07:33:23;26.70;99.90
10662;DHT22;5379;51.034;7.006;2023-09-18T07:35:49;26.60;99.90
10662;DHT22;5379;51.034;7.006;2023-09-18T07:38:17;26.40;99.90
10662;DHT22;5379;51.034;7.006;2023-09-18T07:40:46;26.30;99.90
10662;DHT22;5379;51.034;7.006;2023-09-18T07:43:13;26.20;99.90
10662;DHT22;5379;51.034;7.006;2023-09-18T07:45:40;26.10;99.90
10662;DHT22;5379;51.034;7.006;2023-09-18T07:48:07;26.30;99.90
10662;DHT22;5379;51.034;7.006;2023-09-18T07:50:34;26.50;99.90
10662;DHT22;5379;51.034;7.006;2023-09-18T07:53:01;26.70;99.90
10662;DHT22;5379;51.034;7.006;2023-09-18T07:55:28;26.60;99.90
10662;DHT22;5379;51.034;7.006;2023-09-18T07:57:57;26.90;99.90
10662;DHT22;5379;51.034;7.006;2023-09-18T08:00:24;26.80;99.90
10662;DHT22;5379;51.034;7.006;2023-09-18T08:02:54;26.70;99.90
10662;DHT22;5379;51.034;7.006;2023-09-18T08:05:24;26.70;99.90
10662;DHT22;5379;51.034;7.006;2023-09-18T08:07:53;26.90;99.90
10662;DHT22;5379;51.034;7.006;2023-09-18T08:10:21;27.10;99.90
10662;DHT22;5379;51.034;7.006;2023-09-18T08:12:48;27.00;99.90
10662;DHT22;5379;51.034;7.006;2023-09-18T08:15:18;27.20;99.90
10662;DHT22;5379;51.034;7.006;2023-09-18T08:17:45;27.00;99.90
10662;DHT22;5379;51.034;7.006;2023-09-18T08:20:13;26.60;99.90
10662;DHT22;5379;51.034;7.006;2023-09-18T08:22:41;26.70;99.90
10662;DHT22;5379;51.034;7.006;2023-09-18T08:25:08;26.90;99.90
10662;DHT22;5379;51.034;7.006;2023-09-18T08:27:37;26.90;99.90
10662;DHT22;5379;51.034;7.006;2023-09-18T08:30:06;26.80;99.90
10662;DHT22;5379;51.034;7.006;2023-09-18T08:32:36;26.70;99.90
10662;DHT22;5379;51.034;7.006;2023-09-18T08:35:04;26.50;99.90
10662;DHT22;5379;51.034;7.006;2023-09-18T08:37:31;26.30;99.90
10662;DHT22;5379;51.034;7.006;2023-09-18T08:39:58;26.50;99.90
10662;DHT22;5379;51.034;7.006;2023-09-18T08:42:27;26.50;99.90
10662;DHT22;5379;51.034;7.006;2023-09-18T08:44:57;26.50;99.90
10662;DHT22;5379;51.034;7.006;2023-09-18T08:47:25;26.70;99.90
10662;DHT22;5379;51.034;7.006;2023-09-18T08:49:54;26.70;99.90
10662;DHT22;5379;51.034;7.006;2023-09-18T08:52:23;26.80;99.90
10662;DHT22;5379;51.034;7.006;2023-09-18T08:54:51;26.80;99.90
10662;DHT22;5379;51.034;7.006;2023-09-18T08:57:19;26.50;99.90
10662;DHT22;5379;51.034;7.006;2023-09-18T08:59:46;26.50;99.90
10662;DHT22;5379;51.034;7.006;2023-09-18T09:02:14;26.70;99.90
10662;DHT22;5379;51.034;7.006;2023-09-18T09:04:41;26.80;99.90
10662;DHT22;5379;51.034;7.006;2023-09-18T09:07:09;26.70;99.90
10662;DHT22;5379;51.034;7.006;2023-09-18T09:09:36;26.70;99.90
10662;DHT22;5379;51.034;7.006;2023-09-18T09:12:03;26.50;99.90
10662;DHT22;5379;51.034;7.006;2023-09-18T09:14:30;26.30;99.90
10662;DHT22;5379;51.034;7.006;2023-09-18T09:16:57;26.60;99.90
10662;DHT22;5379;51.034;7.006;2023-09-18T09:19:31;26.20;99.90
10662;DHT22;5379;51.034;7.006;2023-09-18T09:21:58;26.20;99.90
10662;DHT22;5379;51.034;7.006;2023-09-18T09:24:38;26.20;99.90
10662;DHT22;5379;51.034;7.006;2023-09-18T09:27:05;25.90;99.90
10662;DHT22;5379;51.034;7.006;2023-09-18T09:29:32;26.00;99.90
10662;DHT22;5379;51.034;7.006;2023-09-18T09:32:12;26.00;99.90
10662;DHT22;5379;51.034;7.006;2023-09-18T09:34:41;25.50;99.90
10662;DHT22;5379;51.034;7.006;2023-09-18T09:37:08;25.50;99.90
10662;DHT22;5379;51.034;7.006;2023-09-18T09:39:36;25.60;99.90
10662;DHT22;5379;51.034;7.006;2023-09-18T09:48:03;25.60;99.90
10662;DHT22;5379;51.034;7.006;2023-09-18T10:04:12;25.80;99.90
10662;DHT22;5379;51.034;7.006;2023-09-18T10:17:15;25.00;99.90
10662;DHT22;5379;51.034;7.006;2023-09-18T10:23:01;25.50;99.90
10662;DHT22;5379;51.034;7.006;2023-09-18T10:25:45;25.60;99.90
10662;DHT22;5379;51.034;7.006;2023-09-18T10:34:16;24.40;99.90
10662;DHT22;5379;51.034;7.006;2023-09-18T10:36:54;24.10;99.90
10662;DHT22;5379;51.034;7.006;2023-09-18T10:39:29;23.70;99.90
10662;DHT22;5379;51.034;7.006;2023-09-18T10:42:24;23.70;99.90
10662;DHT22;5379;51.034;7.006;2023-09-18T10:45:37;23.90;99.90
10662;DHT22;5379;51.034;7.006;2023-09-18T10:48:06;23.80;99.90
10662;DHT22;5379;51.034;7.006;2023-09-18T11:34:23;25.80;99.90
10662;DHT22;5379;51.034;7.006;2023-09-18T11:36:52;25.80;99.90
10662;DHT22;5379;51.034;7.006;2023-09-18T11:39:35;26.00;99.90
10662;DHT22;5379;51.034;7.006;2023-09-18T11:42:09;25.90;99.90
10662;DHT22;5379;51.034;7.006;2023-09-18T11:44:37;25.50;99.90
10662;DHT22;5379;51.034;7.006;2023-09-18T11:47:09;25.30;99.90
10662;DHT22;5379;51.034;7.006;2023-09-18T11:49:40;25.40;99.90
10662;DHT22;5379;51.034;7.006;2023-09-18T11:52:09;25.50;99.90
10662;DHT22;5379;51.034;7.006;2023-09-18T11:54:36;25.20;99.90
10662;DHT22;5379;51.034;7.006;2023-09-18T11:57:06;25.60;99.90
10662;DHT22;5379;51.034;7.006;2023-09-18T11:59:36;25.80;99.90
10662;DHT22;5379;51.034;7.006;2023-09-18T12:02:03;25.60;99.90
10662;DHT22;5379;51.034;7.006;2023-09-18T12:04:31;25.90;99.90
10662;DHT22;5379;51.034;7.006;2023-09-18T12:07:00;26.00;99.90
10662;DHT22;5379;51.034;7.006;2023-09-18T12:09:28;26.30;99.90
10662;DHT22;5379;51.034;7.006;2023-09-18T12:11:56;26.00;99.90
10662;DHT22;5379;51.034;7.006;2023-09-18T12:14:23;26.00;99.90
10662;DHT22;5379;51.034;7.006;2023-09-18T12:16:50;26.20;99.90
10662;DHT22;5379;51.034;7.006;2023-09-18T12:19:17;26.10;99.90
10662;DHT22;5379;51.034;7.006;2023-09-18T12:21:46;26.40;99.90
10662;DHT22;5379;51.034;7.006;2023-09-18T12:24:17;26.10;99.90
10662;DHT22;5379;51.034;7.006;2023-09-18T12:26:47;26.00;99.90
10662;DHT22;5379;51.034;7.006;2023-09-18T12:29:14;26.00;99.90
10662;DHT22;5379;51.034;7.006;2023-09-18T12:31:41;26.20;99.90
10662;DHT22;5379;51.034;7.006;2023-09-18T12:34:14;26.30;99.90
10662;DHT22;5379;51.034;7.006;2023-09-18T12:36:42;26.30;99.90
10662;DHT22;5379;51.034;7.006;2023-09-18T12:39:09;26.30;99.90
10662;DHT22;5379;51.034;7.006;2023-09-18T12:41:39;26.40;99.90
10662;DHT22;5379;51.034;7.006;2023-09-18T12:44:06;26.20;99.90
10662;DHT22;5379;51.034;7.006;2023-09-18T12:46:34;26.40;99.90
10662;DHT22;5379;51.034;7.006;2023-09-18T12:49:15;26.30;99.90
10662;DHT22;5379;51.034;7.006;2023-09-18T12:51:42;26.50;99.90
10662;DHT22;5379;51.034;7.006;2023-09-18T12:54:09;26.20;99.90
10662;DHT22;5379;51.034;7.006;2023-09-18T12:56:41;26.50;99.90
10662;DHT22;5379;51.034;7.006;2023-09-18T12:59:09;26.40;99.90
10662;DHT22;5379;51.034;7.006;2023-09-18T13:01:35;26.80;99.90
10662;DHT22;5379;51.034;7.006;2023-09-18T13:04:04;26.90;99.90
10662;DHT22;5379;51.034;7.006;2023-09-18T13:06:31;26.70;99.90
10662;DHT22;5379;51.034;7.006;2023-09-18T13:09:16;26.80;99.90
10662;DHT22;5379;51.034;7.006;2023-09-18T13:11:55;26.70;99.90
10662;DHT22;5379;51.034;7.006;2023-09-18T13:14:22;26.90;99.90
10662;DHT22;5379;51.034;7.006;2023-09-18T13:16:49;26.90;99.90
10662;DHT22;5379;51.034;7.006;2023-09-18T13:19:17;26.70;99.90
10662;DHT22;5379;51.034;7.006;2023-09-18T13:21:48;26.60;99.90
10662;DHT22;5379;51.034;7.006;2023-09-18T13:24:25;26.30;99.90
10662;DHT22;5379;51.034;7.006;2023-09-18T13:26:54;26.20;99.90
10662;DHT22;5379;51.034;7.006;2023-09-18T13:29:22;26.60;99.90
10662;DHT22;5379;51.034;7.006;2023-09-18T13:31:49;26.40;99.90
10662;DHT22;5379;51.034;7.006;2023-09-18T13:34:17;26.20;99.90
10662;DHT22;5379;51.034;7.006;2023-09-18T13:36:44;26.10;99.90
10662;DHT22;5379;51.034;7.006;2023-09-18T13:39:11;25.70;99.90
10662;DHT22;5379;51.034;7.006;2023-09-18T13:41:38;25.70;99.90
10662;DHT22;5379;51.034;7.006;2023-09-18T13:44:07;26.00;99.90
10662;DHT22;5379;51.034;7.006;2023-09-18T13:46:35;26.10;99.90
10662;DHT22;5379;51.034;7.006;2023-09-18T13:49:02;26.30;99.90
10662;DHT22;5379;51.034;7.006;2023-09-18T13:51:30;26.60;99.90
10662;DHT22;5379;51.034;7.006;2023-09-18T13:53:57;26.80;99.90
10662;DHT22;5379;51.034;7.006;2023-09-18T13:56:24;26.40;99.90
10662;DHT22;5379;51.034;7.006;2023-09-18T13:58:53;26.40;99.90
10662;DHT22;5379;51.034;7.006;2023-09-18T14:01:22;26.50;99.90
10662;DHT22;5379;51.034;7.006;2023-09-18T14:03:51;26.20;99.90
10662;DHT22;5379;51.034;7.006;2023-09-18T14:06:18;26.30;99.90
10662;DHT22;5379;51.034;7.006;2023-09-18T14:08:44;26.30;99.90
10662;DHT22;5379;51.034;7.006;2023-09-18T14:11:11;26.20;99.90
10662;DHT22;5379;51.034;7.006;2023-09-18T14:13:38;26.40;99.90
10662;DHT22;5379;51.034;7.006;2023-09-18T14:16:05;26.40;99.90
10662;DHT22;5379;51.034;7.006;2023-09-18T14:18:33;26.10;99.90
10662;DHT22;5379;51.034;7.006;2023-09-18T14:21:00;26.50;99.90
10662;DHT22;5379;51.034;7.006;2023-09-18T14:23:27;26.80;99.90
10662;DHT22;5379;51.034;7.006;2023-09-18T14:25:54;26.80;99.90
10662;DHT22;5379;51.034;7.006;2023-09-18T14:28:21;26.50;99.90
10662;DHT22;5379;51.034;7.006;2023-09-18T14:30:47;26.70;99.90
10662;DHT22;5379;51.034;7.006;2023-09-18T14:33:14;26.50;99.90
10662;DHT22;5379;51.034;7.006;2023-09-18T14:35:42;26.50;99.90
10662;DHT22;5379;51.034;7.006;2023-09-18T14:38:09;26.70;99.90
10662;DHT22;5379;51.034;7.006;2023-09-18T14:40:36;26.80;99.90
10662;DHT22;5379;51.034;7.006;2023-09-18T14:43:03;26.70;99.90
10662;DHT22;5379;51.034;7.006;2023-09-18T14:45:30;26.40;99.90
10662;DHT22;5379;51.034;7.006;2023-09-18T14:47:57;26.40;99.90
10662;DHT22;5379;51.034;7.006;2023-09-18T14:50:25;26.50;99.90
10662;DHT22;5379;51.034;7.006;2023-09-18T14:52:53;26.60;99.90
10662;DHT22;5379;51.034;7.006;2023-09-18T14:55:20;26.70;99.90
10662;DHT22;5379;51.034;7.006;2023-09-18T14:57:46;26.40;99.90
10662;DHT22;5379;51.034;7.006;2023-09-18T15:00:14;26.70;99.90
10662;DHT22;5379;51.034;7.006;2023-09-18T15:02:41;26.60;99.90
10662;DHT22;5379;51.034;7.006;2023-09-18T15:05:08;26.60;99.90
10662;DHT22;5379;51.034;7.006;2023-09-18T15:07:37;26.70;99.90
10662;DHT22;5379;51.034;7.006;2023-09-18T15:10:06;26.60;99.90
10662;DHT22;5379;51.034;7.006;2023-09-18T15:12:35;26.30;99.90
10662;DHT22;5379;51.034;7.006;2023-09-18T15:15:02;26.60;99.90
10662;DHT22;5379;51.034;7.006;2023-09-18T15:17:30;26.70;99.90
10662;DHT22;5379;51.034;7.006;2023-09-18T15:19:58;26.70;99.90
10662;DHT22;5379;51.034;7.006;2023-09-18T15:22:25;26.30;99.90
10662;DHT22;5379;51.034;7.006;2023-09-18T15:24:53;26.50;99.90
10662;DHT22;5379;51.034;7.006;2023-09-18T15:27:21;26.60;99.90
10662;DHT22;5379;51.034;7.006;2023-09-18T15:29:48;26.50;99.90
10662;DHT22;5379;51.034;7.006;2023-09-18T15:32:15;26.20;99.90
10662;DHT22;5379;51.034;7.006;2023-09-18T15:34:42;26.40;99.90
10662;DHT22;5379;51.034;7.006;2023-09-18T15:37:09;26.50;99.90
10662;DHT22;5379;51.034;7.006;2023-09-18T15:39:35;26.70;99.90
10662;DHT22;5379;51.034;7.006;2023-09-18T15:42:02;26.90;99.90
10662;DHT22;5379;51.034;7.006;2023-09-18T15:44:31;27.20;99.90
10662;DHT22;5379;51.034;7.006;2023-09-18T15:46:59;27.20;99.90
10662;DHT22;5379;51.034;7.006;2023-09-18T15:49:26;27.40;99.90
10662;DHT22;5379;51.034;7.006;2023-09-18T15:51:53;27.00;99.90
10662;DHT22;5379;51.034;7.006;2023-09-18T15:54:19;27.00;99.90
10662;DHT22;5379;51.034;7.006;2023-09-18T15:56:46;27.20;99.90
10662;DHT22;5379;51.034;7.006;2023-09-18T15:59:14;27.40;99.90
10662;DHT22;5379;51.034;7.006;2023-09-18T16:01:42;27.40;99.90
10662;DHT22;5379;51.034;7.006;2023-09-18T16:04:09;27.20;99.90
10662;DHT22;5379;51.034;7.006;2023-09-18T16:06:36;27.10;99.90
10662;DHT22;5379;51.034;7.006;2023-09-18T16:09:03;27.20;99.90
10662;DHT22;5379;51.034;7.006;2023-09-18T16:11:31;27.20;99.90
10662;DHT22;5379;51.034;7.006;2023-09-18T16:13:58;26.90;99.90
10662;DHT22;5379;51.034;7.006;2023-09-18T16:16:25;26.90;99.90
10662;DHT22;5379;51.034;7.006;2023-09-18T16:18:53;26.80;99.90
10662;DHT22;5379;51.034;7.006;2023-09-18T16:21:22;27.00;99.90
10662;DHT22;5379;51.034;7.006;2023-09-18T16:23:49;26.80;99.90
10662;DHT22;5379;51.034;7.006;2023-09-18T16:26:16;26.80;99.90
10662;DHT22;5379;51.034;7.006;2023-09-18T16:28:43;26.70;99.90
10662;DHT22;5379;51.034;7.006;2023-09-18T16:31:12;26.70;99.90
10662;DHT22;5379;51.034;7.006;2023-09-18T16:33:39;26.70;99.90
10662;DHT22;5379;51.034;7.006;2023-09-18T16:36:07;27.00;99.90
10662;DHT22;5379;51.034;7.006;2023-09-18T16:38:34;26.90;99.90
10662;DHT22;5379;51.034;7.006;2023-09-18T16:41:06;27.30;99.90
10662;DHT22;5379;51.034;7.006;2023-09-18T16:43:33;27.30;99.90
10662;DHT22;5379;51.034;7.006;2023-09-18T16:46:00;27.50;99.90
10662;DHT22;5379;51.034;7.006;2023-09-18T16:48:26;27.30;99.90
10662;DHT22;5379;51.034;7.006;2023-09-18T16:50:56;27.10;99.90
10662;DHT22;5379;51.034;7.006;2023-09-18T16:53:24;26.80;99.90
10662;DHT22;5379;51.034;7.006;2023-09-18T16:55:51;27.00;99.90
10662;DHT22;5379;51.034;7.006;2023-09-18T16:58:17;27.00;99.90
10662;DHT22;5379;51.034;7.006;2023-09-18T17:00:44;27.00;99.90
10662;DHT22;5379;51.034;7.006;2023-09-18T17:03:11;27.40;99.90
10662;DHT22;5379;51.034;7.006;2023-09-18T17:05:38;27.60;99.90
10662;DHT22;5379;51.034;7.006;2023-09-18T17:08:05;27.80;99.90
10662;DHT22;5379;51.034;7.006;2023-09-18T17:10:34;27.50;99.90
10662;DHT22;5379;51.034;7.006;2023-09-18T17:13:01;27.50;99.90
10662;DHT22;5379;51.034;7.006;2023-09-18T17:15:30;27.40;99.90
10662;DHT22;5379;51.034;7.006;2023-09-18T17:17:57;27.60;99.90
10662;DHT22;5379;51.034;7.006;2023-09-18T17:20:28;27.90;99.90
10662;DHT22;5379;51.034;7.006;2023-09-18T17:22:55;27.90;99.90
10662;DHT22;5379;51.034;7.006;2023-09-18T17:25:21;27.70;99.90
10662;DHT22;5379;51.034;7.006;2023-09-18T17:27:50;27.40;99.90
10662;DHT22;5379;51.034;7.006;2023-09-18T17:30:16;27.20;99.90
10662;DHT22;5379;51.034;7.006;2023-09-18T17:32:43;27.40;99.90
10662;DHT22;5379;51.034;7.006;2023-09-18T17:35:12;27.20;99.90
10662;DHT22;5379;51.034;7.006;2023-09-18T17:37:39;27.10;99.90
10662;DHT22;5379;51.034;7.006;2023-09-18T17:40:07;27.00;99.90
10662;DHT22;5379;51.034;7.006;2023-09-18T17:42:33;27.10;99.90
10662;DHT22;5379;51.034;7.006;2023-09-18T17:45:02;27.50;99.90
10662;DHT22;5379;51.034;7.006;2023-09-18T17:47:29;27.20;99.90
10662;DHT22;5379;51.034;7.006;2023-09-18T17:49:57;27.10;99.90
10662;DHT22;5379;51.034;7.006;2023-09-18T17:52:24;27.20;99.90
10662;DHT22;5379;51.034;7.006;2023-09-18T17:54:51;27.40;99.90
10662;DHT22;5379;51.034;7.006;2023-09-18T17:57:18;27.60;99.90
10662;DHT22;5379;51.034;7.006;2023-09-18T17:59:46;27.90;99.90
10662;DHT22;5379;51.034;7.006;2023-09-18T18:02:14;28.10;99.90
10662;DHT22;5379;51.034;7.006;2023-09-18T18:04:41;27.90;99.90
10662;DHT22;5379;51.034;7.006;2023-09-18T18:07:08;27.90;99.90
10662;DHT22;5379;51.034;7.006;2023-09-18T18:09:35;27.70;99.90
10662;DHT22;5379;51.034;7.006;2023-09-18T18:12:01;26.80;99.90
10662;DHT22;5379;51.034;7.006;2023-09-18T18:14:30;25.90;99.90
10662;DHT22;5379;51.034;7.006;2023-09-18T18:16:59;25.40;99.90
10662;DHT22;5379;51.034;7.006;2023-09-18T18:19:29;25.10;99.90
10662;DHT22;5379;51.034;7.006;2023-09-18T18:21:55;24.30;99.90
10662;DHT22;5379;51.034;7.006;2023-09-18T18:24:22;24.40;99.90
10662;DHT22;5379;51.034;7.006;2023-09-18T18:26:49;24.90;99.90
10662;DHT22;5379;51.034;7.006;2023-09-18T18:29:18;25.00;99.90
10662;DHT22;5379;51.034;7.006;2023-09-18T18:31:45;25.30;99.90
10662;DHT22;5379;51.034;7.006;2023-09-18T18:34:12;26.00;99.90
10662;DHT22;5379;51.034;7.006;2023-09-18T18:36:40;26.60;99.90
10662;DHT22;5379;51.034;7.006;2023-09-18T18:39:08;26.90;99.90
10662;DHT22;5379;51.034;7.006;2023-09-18T18:41:34;27.10;99.90
10662;DHT22;5379;51.034;7.006;2023-09-18T18:44:01;27.20;99.90
10662;DHT22;5379;51.034;7.006;2023-09-18T18:46:28;27.10;99.90
10662;DHT22;5379;51.034;7.006;2023-09-18T18:48:56;27.30;99.90
10662;DHT22;5379;51.034;7.006;2023-09-18T18:51:24;27.30;99.90
10662;DHT22;5379;51.034;7.006;2023-09-18T18:53:52;27.40;99.90
10662;DHT22;5379;51.034;7.006;2023-09-18T18:56:20;27.50;99.90
10662;DHT22;5379;51.034;7.006;2023-09-18T18:58:47;27.40;99.90
10662;DHT22;5379;51.034;7.006;2023-09-18T19:01:15;27.40;99.90
10662;DHT22;5379;51.034;7.006;2023-09-18T19:03:44;27.50;99.90
10662;DHT22;5379;51.034;7.006;2023-09-18T19:06:11;27.40;99.90
10662;DHT22;5379;51.034;7.006;2023-09-18T19:08:39;26.60;99.90
10662;DHT22;5379;51.034;7.006;2023-09-18T19:11:08;25.70;99.90
10662;DHT22;5379;51.034;7.006;2023-09-18T19:13:35;25.00;99.90
10662;DHT22;5379;51.034;7.006;2023-09-18T19:16:02;24.00;99.90
10662;DHT22;5379;51.034;7.006;2023-09-18T19:18:29;23.30;99.90
10662;DHT22;5379;51.034;7.006;2023-09-18T19:20:56;23.00;99.90
10662;DHT22;5379;51.034;7.006;2023-09-18T19:23:23;22.40;99.90
10662;DHT22;5379;51.034;7.006;2023-09-18T19:25:53;22.70;99.90
10662;DHT22;5379;51.034;7.006;2023-09-18T19:28:21;23.00;99.90
10662;DHT22;5379;51.034;7.006;2023-09-18T19:30:48;23.00;99.90
10662;DHT22;5379;51.034;7.006;2023-09-18T19:33:19;22.70;99.90
10662;DHT22;5379;51.034;7.006;2023-09-18T19:35:47;22.90;99.90
10662;DHT22;5379;51.034;7.006;2023-09-18T19:38:13;23.00;99.90
10662;DHT22;5379;51.034;7.006;2023-09-18T19:40:44;22.90;99.90
10662;DHT22;5379;51.034;7.006;2023-09-18T19:43:11;23.00;99.90
10662;DHT22;5379;51.034;7.006;2023-09-18T19:45:39;23.10;99.90
10662;DHT22;5379;51.034;7.006;2023-09-18T19:48:07;22.90;99.90
10662;DHT22;5379;51.034;7.006;2023-09-18T19:50:33;22.50;99.90
10662;DHT22;5379;51.034;7.006;2023-09-18T19:53:00;22.30;99.90
10662;DHT22;5379;51.034;7.006;2023-09-18T19:55:28;21.90;99.90
10662;DHT22;5379;51.034;7.006;2023-09-18T19:57:55;21.90;99.90
10662;DHT22;5379;51.034;7.006;2023-09-18T20:00:22;21.60;99.90
10662;DHT22;5379;51.034;7.006;2023-09-18T20:02:51;21.60;99.90
10662;DHT22;5379;51.034;7.006;2023-09-18T20:05:18;21.50;99.90
10662;DHT22;5379;51.034;7.006;2023-09-18T20:07:45;21.50;99.90
10662;DHT22;5379;51.034;7.006;2023-09-18T20:10:12;21.60;99.90
10662;DHT22;5379;51.034;7.006;2023-09-18T20:12:42;21.70;99.90
10662;DHT22;5379;51.034;7.006;2023-09-18T20:15:09;21.90;99.90
10662;DHT22;5379;51.034;7.006;2023-09-18T20:17:37;21.90;99.90
10662;DHT22;5379;51.034;7.006;2023-09-18T20:20:06;22.30;99.90
10662;DHT22;5379;51.034;7.006;2023-09-18T20:22:33;22.20;99.90
10662;DHT22;5379;51.034;7.006;2023-09-18T20:25:00;22.00;99.90
10662;DHT22;5379;51.034;7.006;2023-09-18T20:27:27;22.10;99.90
10662;DHT22;5379;51.034;7.006;2023-09-18T20:29:56;22.40;99.90
10662;DHT22;5379;51.034;7.006;2023-09-18T20:32:22;22.30;99.90
10662;DHT22;5379;51.034;7.006;2023-09-18T20:34:49;22.10;99.90
10662;DHT22;5379;51.034;7.006;2023-09-18T20:37:18;22.40;99.90
10662;DHT22;5379;51.034;7.006;2023-09-18T20:39:46;22.90;99.90
10662;DHT22;5379;51.034;7.006;2023-09-18T20:42:12;22.80;99.90
10662;DHT22;5379;51.034;7.006;2023-09-18T20:44:39;22.70;99.90
10662;DHT22;5379;51.034;7.006;2023-09-18T20:47:06;22.50;99.90
10662;DHT22;5379;51.034;7.006;2023-09-18T20:49:33;22.30;99.90
10662;DHT22;5379;51.034;7.006;2023-09-18T20:52:00;22.30;99.90
10662;DHT22;5379;51.034;7.006;2023-09-18T20:54:28;22.50;99.90
10662;DHT22;5379;51.034;7.006;2023-09-18T20:56:55;22.60;99.90
10662;DHT22;5379;51.034;7.006;2023-09-18T20:59:22;22.20;99.90
10662;DHT22;5379;51.034;7.006;2023-09-18T21:01:49;21.90;99.90
10662;DHT22;5379;51.034;7.006;2023-09-18T21:04:15;22.00;99.90
10662;DHT22;5379;51.034;7.006;2023-09-18T21:06:42;22.10;99.90
10662;DHT22;5379;51.034;7.006;2023-09-18T21:09:09;22.40;99.90
10662;DHT22;5379;51.034;7.006;2023-09-18T21:11:40;22.60;99.90
10662;DHT22;5379;51.034;7.006;2023-09-18T21:14:07;22.80;99.90
10662;DHT22;5379;51.034;7.006;2023-09-18T21:16:34;22.70;99.90
10662;DHT22;5379;51.034;7.006;2023-09-18T21:19:01;22.40;99.90
10662;DHT22;5379;51.034;7.006;2023-09-18T21:21:28;22.40;99.90
10662;DHT22;5379;51.034;7.006;2023-09-18T21:23:55;22.70;99.90
10662;DHT22;5379;51.034;7.006;2023-09-18T21:26:22;23.00;99.90
10662;DHT22;5379;51.034;7.006;2023-09-18T21:28:50;23.00;99.90
10662;DHT22;5379;51.034;7.006;2023-09-18T21:31:16;22.90;99.90
10662;DHT22;5379;51.034;7.006;2023-09-18T21:33:47;23.10;99.90
10662;DHT22;5379;51.034;7.006;2023-09-18T21:36:15;23.10;99.90
10662;DHT22;5379;51.034;7.006;2023-09-18T21:38:42;22.90;99.90
10662;DHT22;5379;51.034;7.006;2023-09-18T21:41:09;22.80;99.90
10662;DHT22;5379;51.034;7.006;2023-09-18T21:43:37;23.00;99.90